sensor_id;sensor_type;location;lat;lon;timestamp;pressure;altitude;pressure_sealevel;temperature;humidity
60258;BME280;46115;44.484;11.314;2023-11-19T00:03:00;100889.31;;;7.62;66.76
60258;BME280;46115;44.484;11.314;2023-11-19T00:07:02;100848.47;;;7.50;67.33
60258;BME280;46115;44.484;11.314;2023-11-19T00:11:08;100860.28;;;7.66;67.05
60258;BME280;46115;44.484;11.314;2023-11-19T00:15:12;100844.75;;;7.57;67.17
60258;BME280;46115;44.484;11.314;2023-11-19T00:19:14;100847.81;;;7.43;67.58
60258;BME280;46115;44.484;11.314;2023-11-19T00:23:17;100846.03;;;7.44;68.02
60258;BME280;46115;44.484;11.314;2023-11-19T00:27:21;100846.31;;;7.64;67.12
60258;BME280;46115;44.484;11.314;2023-11-19T00:31:23;100847.81;;;7.43;68.53
60258;BME280;46115;44.484;11.314;2023-11-19T00:35:28;100850.66;;;7.65;68.02
60258;BME280;46115;44.484;11.314;2023-11-19T00:39:33;100861.84;;;7.72;67.50
60258;BME280;46115;44.484;11.314;2023-11-19T00:43:36;100846.47;;;7.58;68.87
60258;BME280;46115;44.484;11.314;2023-11-19T00:47:39;100856.63;;;7.70;67.41
60258;BME280;46115;44.484;11.314;2023-11-19T00:51:41;100832.94;;;7.70;67.93
60258;BME280;46115;44.484;11.314;2023-11-19T00:55:43;100835.84;;;7.61;68.30
60258;BME280;46115;44.484;11.314;2023-11-19T00:59:47;100838.81;;;7.78;67.97
60258;BME280;46115;44.484;11.314;2023-11-19T01:03:49;100855.22;;;7.87;67.91
60258;BME280;46115;44.484;11.314;2023-11-19T01:07:52;100858.09;;;7.79;68.20
60258;BME280;46115;44.484;11.314;2023-11-19T01:11:55;100888.53;;;7.88;67.73
60258;BME280;46115;44.484;11.314;2023-11-19T01:15:58;100879.69;;;7.90;67.88
60258;BME280;46115;44.484;11.314;2023-11-19T01:20:04;100866.91;;;7.78;68.25
60258;BME280;46115;44.484;11.314;2023-11-19T01:24:08;100867.06;;;7.73;68.04
60258;BME280;46115;44.484;11.314;2023-11-19T01:28:13;100845.69;;;7.55;69.88
60258;BME280;46115;44.484;11.314;2023-11-19T01:32:17;100851.19;;;7.47;69.69
60258;BME280;46115;44.484;11.314;2023-11-19T01:36:19;100841.41;;;7.52;69.36
60258;BME280;46115;44.484;11.314;2023-11-19T01:40:22;100839.56;;;7.54;69.62
60258;BME280;46115;44.484;11.314;2023-11-19T01:44:24;100842.75;;;7.65;69.01
60258;BME280;46115;44.484;11.314;2023-11-19T01:48:28;100843.31;;;7.75;69.99
60258;BME280;46115;44.484;11.314;2023-11-19T01:52:30;100833.66;;;7.75;68.79
60258;BME280;46115;44.484;11.314;2023-11-19T01:56:32;100822.88;;;7.83;68.95
60258;BME280;46115;44.484;11.314;2023-11-19T02:00:35;100838.06;;;7.75;69.78
60258;BME280;46115;44.484;11.314;2023-11-19T02:04:41;100833.41;;;7.55;69.86
60258;BME280;46115;44.484;11.314;2023-11-19T02:08:43;100834.69;;;7.71;70.53
60258;BME280;46115;44.484;11.314;2023-11-19T02:12:46;100825.47;;;7.57;70.70
60258;BME280;46115;44.484;11.314;2023-11-19T02:16:49;100808.78;;;7.58;70.84
60258;BME280;46115;44.484;11.314;2023-11-19T02:20:52;100811.66;;;7.50;71.29
60258;BME280;46115;44.484;11.314;2023-11-19T02:24:59;100788.94;;;7.47;70.19
60258;BME280;46115;44.484;11.314;2023-11-19T02:29:05;100791.13;;;7.61;70.69
60258;BME280;46115;44.484;11.314;2023-11-19T02:33:07;100794.72;;;7.59;70.70
60258;BME280;46115;44.484;11.314;2023-11-19T02:37:10;100788.63;;;7.85;70.37
60258;BME280;46115;44.484;11.314;2023-11-19T02:41:13;100770.94;;;7.88;70.35
60258;BME280;46115;44.484;11.314;2023-11-19T02:45:17;100764.38;;;8.01;70.25
60258;BME280;46115;44.484;11.314;2023-11-19T02:49:19;100765.34;;;7.99;70.02
60258;BME280;46115;44.484;11.314;2023-11-19T02:53:21;100760.78;;;8.04;70.29
60258;BME280;46115;44.484;11.314;2023-11-19T02:57:24;100752.09;;;8.02;69.61
60258;BME280;46115;44.484;11.314;2023-11-19T03:01:27;100751.22;;;7.75;70.40
60258;BME280;46115;44.484;11.314;2023-11-19T03:05:31;100744.09;;;7.78;70.42
60258;BME280;46115;44.484;11.314;2023-11-19T03:09:33;100733.13;;;7.66;71.42
60258;BME280;46115;44.484;11.314;2023-11-19T03:13:36;100735.59;;;7.70;71.80
60258;BME280;46115;44.484;11.314;2023-11-19T03:17:39;100725.56;;;7.81;72.04
60258;BME280;46115;44.484;11.314;2023-11-19T03:21:42;100729.53;;;7.68;72.23
60258;BME280;46115;44.484;11.314;2023-11-19T03:25:46;100725.75;;;7.49;72.21
60258;BME280;46115;44.484;11.314;2023-11-19T03:29:48;100727.72;;;7.42;73.05
60258;BME280;46115;44.484;11.314;2023-11-19T03:33:51;100712.53;;;7.50;72.62
60258;BME280;46115;44.484;11.314;2023-11-19T03:37:54;100713.19;;;7.31;73.61
60258;BME280;46115;44.484;11.314;2023-11-19T03:41:57;100724.59;;;7.58;73.28
60258;BME280;46115;44.484;11.314;2023-11-19T03:45:59;100713.31;;;7.54;72.76
60258;BME280;46115;44.484;11.314;2023-11-19T03:50:03;100719.16;;;7.64;72.76
60258;BME280;46115;44.484;11.314;2023-11-19T03:54:06;100716.28;;;7.43;72.91
60258;BME280;46115;44.484;11.314;2023-11-19T03:58:09;100710.53;;;7.59;72.45
60258;BME280;46115;44.484;11.314;2023-11-19T04:02:13;100708.28;;;7.46;73.27
60258;BME280;46115;44.484;11.314;2023-11-19T04:06:17;100715.88;;;7.56;73.24
60258;BME280;46115;44.484;11.314;2023-11-19T04:10:19;100714.22;;;7.53;73.19
60258;BME280;46115;44.484;11.314;2023-11-19T04:14:23;100726.31;;;7.59;72.83
60258;BME280;46115;44.484;11.314;2023-11-19T04:18:26;100728.28;;;7.52;73.32
60258;BME280;46115;44.484;11.314;2023-11-19T04:22:30;100730.91;;;7.52;73.60
60258;BME280;46115;44.484;11.314;2023-11-19T04:26:32;100731.84;;;7.77;73.26
60258;BME280;46115;44.484;11.314;2023-11-19T04:30:35;100729.94;;;7.27;74.81
60258;BME280;46115;44.484;11.314;2023-11-19T04:34:38;100730.34;;;7.42;74.87
60258;BME280;46115;44.484;11.314;2023-11-19T04:38:42;100718.63;;;7.53;75.12
60258;BME280;46115;44.484;11.314;2023-11-19T04:42:45;100700.09;;;7.29;75.82
60258;BME280;46115;44.484;11.314;2023-11-19T04:46:47;100718.97;;;7.42;75.01
60258;BME280;46115;44.484;11.314;2023-11-19T04:50:50;100713.66;;;7.43;74.85
60258;BME280;46115;44.484;11.314;2023-11-19T04:54:55;100709.00;;;7.51;74.60
60258;BME280;46115;44.484;11.314;2023-11-19T04:58:57;100704.41;;;7.58;74.08
60258;BME280;46115;44.484;11.314;2023-11-19T05:03:00;100702.34;;;7.41;74.50
60258;BME280;46115;44.484;11.314;2023-11-19T05:07:02;100695.66;;;7.58;75.38
60258;BME280;46115;44.484;11.314;2023-11-19T05:11:06;100691.94;;;7.65;74.45
60258;BME280;46115;44.484;11.314;2023-11-19T05:15:09;100696.75;;;7.50;75.17
60258;BME280;46115;44.484;11.314;2023-11-19T05:19:13;100688.16;;;7.45;74.75
60258;BME280;46115;44.484;11.314;2023-11-19T05:23:16;100676.88;;;7.42;74.47
60258;BME280;46115;44.484;11.314;2023-11-19T05:27:20;100676.19;;;7.63;73.74
60258;BME280;46115;44.484;11.314;2023-11-19T05:31:23;100673.69;;;7.59;74.26
60258;BME280;46115;44.484;11.314;2023-11-19T05:35:25;100668.09;;;7.43;74.50
60258;BME280;46115;44.484;11.314;2023-11-19T05:39:27;100662.03;;;7.41;75.21
60258;BME280;46115;44.484;11.314;2023-11-19T05:43:32;100635.81;;;7.38;74.74
60258;BME280;46115;44.484;11.314;2023-11-19T05:47:35;100650.13;;;7.56;74.76
60258;BME280;46115;44.484;11.314;2023-11-19T05:51:37;100639.09;;;7.44;74.78
60258;BME280;46115;44.484;11.314;2023-11-19T05:55:40;100638.34;;;7.41;75.56
60258;BME280;46115;44.484;11.314;2023-11-19T05:59:51;100645.31;;;7.42;75.40
60258;BME280;46115;44.484;11.314;2023-11-19T06:03:55;100648.81;;;7.42;75.73
60258;BME280;46115;44.484;11.314;2023-11-19T06:07:57;100641.56;;;7.49;75.61
60258;BME280;46115;44.484;11.314;2023-11-19T06:11:59;100640.16;;;7.39;76.09
60258;BME280;46115;44.484;11.314;2023-11-19T06:16:05;100640.75;;;7.47;75.71
60258;BME280;46115;44.484;11.314;2023-11-19T06:20:08;100638.34;;;7.67;75.28
60258;BME280;46115;44.484;11.314;2023-11-19T06:24:14;100621.06;;;7.59;75.51
60258;BME280;46115;44.484;11.314;2023-11-19T06:28:16;100629.69;;;7.64;75.73
60258;BME280;46115;44.484;11.314;2023-11-19T06:32:20;100626.00;;;7.69;75.86
60258;BME280;46115;44.484;11.314;2023-11-19T06:36:23;100639.84;;;7.74;75.95
60258;BME280;46115;44.484;11.314;2023-11-19T06:40:25;100648.78;;;7.94;75.74
60258;BME280;46115;44.484;11.314;2023-11-19T06:44:27;100659.28;;;7.95;76.09
60258;BME280;46115;44.484;11.314;2023-11-19T06:48:31;100654.34;;;8.11;75.33
60258;BME280;46115;44.484;11.314;2023-11-19T06:52:34;100662.28;;;8.09;76.03
60258;BME280;46115;44.484;11.314;2023-11-19T06:56:38;100657.94;;;8.32;74.91
60258;BME280;46115;44.484;11.314;2023-11-19T07:00:40;100666.50;;;8.40;74.53
60258;BME280;46115;44.484;11.314;2023-11-19T07:04:44;100656.22;;;8.31;76.37
60258;BME280;46115;44.484;11.314;2023-11-19T07:08:46;100663.06;;;8.38;75.32
60258;BME280;46115;44.484;11.314;2023-11-19T07:12:48;100659.97;;;8.50;74.79
60258;BME280;46115;44.484;11.314;2023-11-19T07:16:51;100661.63;;;8.76;74.45
60258;BME280;46115;44.484;11.314;2023-11-19T07:20:56;100661.13;;;8.65;74.60
60258;BME280;46115;44.484;11.314;2023-11-19T07:24:58;100665.13;;;9.20;72.56
60258;BME280;46115;44.484;11.314;2023-11-19T07:29:00;100671.28;;;9.63;70.36
60258;BME280;46115;44.484;11.314;2023-11-19T07:33:03;100675.06;;;10.18;68.36
60258;BME280;46115;44.484;11.314;2023-11-19T07:37:07;100680.25;;;10.42;66.84
60258;BME280;46115;44.484;11.314;2023-11-19T07:41:09;100687.69;;;10.71;65.94
60258;BME280;46115;44.484;11.314;2023-11-19T07:45:14;100689.06;;;10.99;65.00
60258;BME280;46115;44.484;11.314;2023-11-19T07:49:16;100697.22;;;11.13;64.34
60258;BME280;46115;44.484;11.314;2023-11-19T07:53:20;100702.59;;;11.65;62.35
60258;BME280;46115;44.484;11.314;2023-11-19T07:57:23;100704.53;;;12.14;61.53
60258;BME280;46115;44.484;11.314;2023-11-19T08:01:28;100703.91;;;12.09;60.28
60258;BME280;46115;44.484;11.314;2023-11-19T08:05:31;100718.19;;;12.57;59.82
60258;BME280;46115;44.484;11.314;2023-11-19T08:09:35;100706.66;;;13.38;56.98
60258;BME280;46115;44.484;11.314;2023-11-19T08:13:38;100725.63;;;14.08;55.47
60258;BME280;46115;44.484;11.314;2023-11-19T08:17:40;100724.28;;;13.55;56.76
60258;BME280;46115;44.484;11.314;2023-11-19T08:21:43;100720.72;;;14.30;54.91
60258;BME280;46115;44.484;11.314;2023-11-19T08:25:47;100720.72;;;14.60;53.90
60258;BME280;46115;44.484;11.314;2023-11-19T08:29:50;100718.31;;;14.98;52.02
60258;BME280;46115;44.484;11.314;2023-11-19T08:33:53;100725.59;;;16.69;48.52
60258;BME280;46115;44.484;11.314;2023-11-19T08:37:55;100722.34;;;18.22;45.24
60258;BME280;46115;44.484;11.314;2023-11-19T08:41:59;100728.66;;;17.38;45.54
60258;BME280;46115;44.484;11.314;2023-11-19T08:46:02;100724.28;;;18.99;41.09
60258;BME280;46115;44.484;11.314;2023-11-19T08:50:06;100724.06;;;20.83;39.37
60258;BME280;46115;44.484;11.314;2023-11-19T08:54:09;100737.88;;;20.79;39.77
60258;BME280;46115;44.484;11.314;2023-11-19T08:58:13;100734.34;;;21.78;33.68
60258;BME280;46115;44.484;11.314;2023-11-19T09:02:15;100733.38;;;22.18;34.88
60258;BME280;46115;44.484;11.314;2023-11-19T09:06:19;100728.16;;;22.16;34.63
60258;BME280;46115;44.484;11.314;2023-11-19T09:10:22;100735.06;;;21.61;35.79
60258;BME280;46115;44.484;11.314;2023-11-19T09:14:26;100727.84;;;19.66;39.16
60258;BME280;46115;44.484;11.314;2023-11-19T09:18:28;100725.13;;;19.00;36.37
60258;BME280;46115;44.484;11.314;2023-11-19T09:22:31;100712.81;;;16.98;42.45
60258;BME280;46115;44.484;11.314;2023-11-19T09:26:33;100713.94;;;17.80;36.67
60258;BME280;46115;44.484;11.314;2023-11-19T09:30:38;100714.44;;;17.01;38.91
60258;BME280;46115;44.484;11.314;2023-11-19T09:34:41;100718.06;;;16.87;38.66
60258;BME280;46115;44.484;11.314;2023-11-19T09:38:43;100730.16;;;17.29;38.16
60258;BME280;46115;44.484;11.314;2023-11-19T09:42:47;100720.44;;;16.79;40.40
60258;BME280;46115;44.484;11.314;2023-11-19T09:46:52;100719.03;;;16.35;42.67
60258;BME280;46115;44.484;11.314;2023-11-19T09:50:55;100720.25;;;16.69;41.56
60258;BME280;46115;44.484;11.314;2023-11-19T09:54:58;100719.66;;;16.26;43.66
60258;BME280;46115;44.484;11.314;2023-11-19T09:59:01;100722.56;;;16.36;43.87
60258;BME280;46115;44.484;11.314;2023-11-19T10:03:06;100722.28;;;16.01;44.19
60258;BME280;46115;44.484;11.314;2023-11-19T10:07:10;100706.31;;;16.26;43.35
60258;BME280;46115;44.484;11.314;2023-11-19T10:11:12;100705.13;;;16.17;42.56
60258;BME280;46115;44.484;11.314;2023-11-19T10:15:20;100692.38;;;15.83;41.03
60258;BME280;46115;44.484;11.314;2023-11-19T10:19:24;100703.94;;;15.96;41.20
60258;BME280;46115;44.484;11.314;2023-11-19T10:23:26;100697.81;;;15.81;40.69
60258;BME280;46115;44.484;11.314;2023-11-19T10:27:29;100688.09;;;15.68;41.37
60258;BME280;46115;44.484;11.314;2023-11-19T10:31:31;100672.94;;;15.41;41.06
60258;BME280;46115;44.484;11.314;2023-11-19T10:35:36;100657.63;;;15.57;40.69
60258;BME280;46115;44.484;11.314;2023-11-19T10:39:55;100673.72;;;15.96;42.61
60258;BME280;46115;44.484;11.314;2023-11-19T10:43:58;100675.66;;;15.94;41.68
60258;BME280;46115;44.484;11.314;2023-11-19T10:48:02;100669.44;;;15.80;39.28
60258;BME280;46115;44.484;11.314;2023-11-19T10:52:07;100669.44;;;15.68;41.02
60258;BME280;46115;44.484;11.314;2023-11-19T10:56:11;100663.91;;;15.71;40.93
60258;BME280;46115;44.484;11.314;2023-11-19T11:00:16;100658.13;;;15.64;40.59
60258;BME280;46115;44.484;11.314;2023-11-19T11:04:23;100650.41;;;15.59;39.61
60258;BME280;46115;44.484;11.314;2023-11-19T11:08:29;100651.84;;;15.51;40.32
60258;BME280;46115;44.484;11.314;2023-11-19T11:12:35;100655.25;;;15.67;41.83
60258;BME280;46115;44.484;11.314;2023-11-19T11:16:40;100644.69;;;15.66;40.76
60258;BME280;46115;44.484;11.314;2023-11-19T11:20:44;100637.22;;;15.31;42.51
60258;BME280;46115;44.484;11.314;2023-11-19T11:25:11;100605.59;;;15.12;42.35
60258;BME280;46115;44.484;11.314;2023-11-19T11:29:26;100618.06;;;15.39;43.45
60258;BME280;46115;44.484;11.314;2023-11-19T11:33:41;100611.66;;;15.81;41.87
60258;BME280;46115;44.484;11.314;2023-11-19T11:37:47;100606.22;;;15.82;41.53
60258;BME280;46115;44.484;11.314;2023-11-19T11:46:54;100578.28;;;15.63;42.31
60258;BME280;46115;44.484;11.314;2023-11-19T11:50:57;100583.53;;;15.50;42.25
60258;BME280;46115;44.484;11.314;2023-11-19T11:55:04;100569.91;;;15.54;40.88
60258;BME280;46115;44.484;11.314;2023-11-19T11:59:18;100557.81;;;15.63;39.83
60258;BME280;46115;44.484;11.314;2023-11-19T12:03:22;100565.28;;;15.71;37.10
60258;BME280;46115;44.484;11.314;2023-11-19T12:07:25;100550.47;;;15.79;36.90
60258;BME280;46115;44.484;11.314;2023-11-19T12:11:28;100559.75;;;15.86;35.61
60258;BME280;46115;44.484;11.314;2023-11-19T12:16:09;100565.81;;;15.76;36.12
60258;BME280;46115;44.484;11.314;2023-11-19T12:20:13;100549.81;;;15.76;36.43
60258;BME280;46115;44.484;11.314;2023-11-19T12:24:16;100546.22;;;15.64;36.54
60258;BME280;46115;44.484;11.314;2023-11-19T12:28:20;100539.38;;;15.20;38.76
60258;BME280;46115;44.484;11.314;2023-11-19T12:32:25;100550.56;;;15.65;39.00
60258;BME280;46115;44.484;11.314;2023-11-19T12:36:29;100542.63;;;15.38;39.48
60258;BME280;46115;44.484;11.314;2023-11-19T12:40:32;100524.09;;;15.49;40.08
60258;BME280;46115;44.484;11.314;2023-11-19T12:44:34;100526.91;;;15.73;39.76
60258;BME280;46115;44.484;11.314;2023-11-19T12:48:37;100506.56;;;15.20;39.87
60258;BME280;46115;44.484;11.314;2023-11-19T12:52:41;100509.84;;;15.76;39.91
60258;BME280;46115;44.484;11.314;2023-11-19T12:56:51;100503.75;;;15.99;39.62
60258;BME280;46115;44.484;11.314;2023-11-19T13:00:59;100491.69;;;15.43;40.68
60258;BME280;46115;44.484;11.314;2023-11-19T13:05:20;100506.75;;;15.69;40.35
60258;BME280;46115;44.484;11.314;2023-11-19T13:09:25;100501.94;;;15.87;38.56
60258;BME280;46115;44.484;11.314;2023-11-19T13:13:27;100498.03;;;15.67;40.45
60258;BME280;46115;44.484;11.314;2023-11-19T13:17:30;100497.00;;;15.55;41.92
60258;BME280;46115;44.484;11.314;2023-11-19T13:21:33;100495.47;;;15.26;43.58
60258;BME280;46115;44.484;11.314;2023-11-19T13:25:37;100487.91;;;15.72;41.20
60258;BME280;46115;44.484;11.314;2023-11-19T13:29:39;100479.22;;;15.94;40.77
60258;BME280;46115;44.484;11.314;2023-11-19T13:33:42;100480.72;;;15.85;40.47
60258;BME280;46115;44.484;11.314;2023-11-19T13:37:44;100444.41;;;15.59;40.76
60258;BME280;46115;44.484;11.314;2023-11-19T13:41:49;100467.72;;;15.43;40.59
60258;BME280;46115;44.484;11.314;2023-11-19T13:45:51;100469.75;;;15.90;40.59
60258;BME280;46115;44.484;11.314;2023-11-19T13:49:54;100454.00;;;15.62;41.69
60258;BME280;46115;44.484;11.314;2023-11-19T13:53:57;100450.66;;;15.83;41.78
60258;BME280;46115;44.484;11.314;2023-11-19T13:58:01;100445.34;;;15.83;42.21
60258;BME280;46115;44.484;11.314;2023-11-19T14:02:03;100453.34;;;15.83;42.21
60258;BME280;46115;44.484;11.314;2023-11-19T14:06:08;100430.56;;;15.67;42.06
60258;BME280;46115;44.484;11.314;2023-11-19T14:10:11;100433.22;;;15.67;42.22
60258;BME280;46115;44.484;11.314;2023-11-19T14:14:15;100429.81;;;15.65;42.46
60258;BME280;46115;44.484;11.314;2023-11-19T14:18:17;100431.28;;;15.81;42.60
60258;BME280;46115;44.484;11.314;2023-11-19T14:22:20;100434.69;;;15.33;43.26
60258;BME280;46115;44.484;11.314;2023-11-19T14:26:22;100418.38;;;15.12;43.66
60258;BME280;46115;44.484;11.314;2023-11-19T14:30:26;100433.56;;;15.62;43.56
60258;BME280;46115;44.484;11.314;2023-11-19T14:34:29;100424.59;;;15.63;43.36
60258;BME280;46115;44.484;11.314;2023-11-19T14:38:32;100436.41;;;15.34;44.64
60258;BME280;46115;44.484;11.314;2023-11-19T14:42:34;100442.03;;;15.42;43.93
60258;BME280;46115;44.484;11.314;2023-11-19T14:46:41;100438.28;;;15.19;43.95
60258;BME280;46115;44.484;11.314;2023-11-19T14:50:43;100442.44;;;15.10;43.89
60258;BME280;46115;44.484;11.314;2023-11-19T14:54:46;100434.66;;;15.20;43.89
60258;BME280;46115;44.484;11.314;2023-11-19T14:58:49;100443.91;;;15.02;44.87
60258;BME280;46115;44.484;11.314;2023-11-19T15:02:53;100434.03;;;15.16;44.57
60258;BME280;46115;44.484;11.314;2023-11-19T15:06:57;100432.31;;;14.63;46.09
60258;BME280;46115;44.484;11.314;2023-11-19T15:11:00;100433.91;;;14.92;45.91
60258;BME280;46115;44.484;11.314;2023-11-19T15:15:03;100411.19;;;14.47;47.10
60258;BME280;46115;44.484;11.314;2023-11-19T15:19:08;100413.53;;;14.52;47.18
60258;BME280;46115;44.484;11.314;2023-11-19T15:23:10;100418.25;;;14.34;47.33
60258;BME280;46115;44.484;11.314;2023-11-19T15:27:12;100421.97;;;13.76;48.93
60258;BME280;46115;44.484;11.314;2023-11-19T15:31:15;100420.97;;;14.05;47.64
60258;BME280;46115;44.484;11.314;2023-11-19T15:35:19;100418.88;;;14.11;47.13
60258;BME280;46115;44.484;11.314;2023-11-19T15:39:22;100432.91;;;14.13;48.16
60258;BME280;46115;44.484;11.314;2023-11-19T15:43:24;100448.44;;;13.92;48.87
60258;BME280;46115;44.484;11.314;2023-11-19T15:47:27;100456.13;;;13.82;49.18
60258;BME280;46115;44.484;11.314;2023-11-19T15:51:31;100460.50;;;13.69;50.36
60258;BME280;46115;44.484;11.314;2023-11-19T15:55:34;100433.63;;;13.45;50.51
60258;BME280;46115;44.484;11.314;2023-11-19T15:59:36;100477.56;;;13.65;51.51
60258;BME280;46115;44.484;11.314;2023-11-19T16:03:39;100458.47;;;13.44;51.61
60258;BME280;46115;44.484;11.314;2023-11-19T23:06:08;100433.44;;;9.11;69.40
60258;BME280;46115;44.484;11.314;2023-11-19T23:10:11;100434.56;;;9.05;70.06
60258;BME280;46115;44.484;11.314;2023-11-19T23:14:13;100428.69;;;9.19;69.53
60258;BME280;46115;44.484;11.314;2023-11-19T23:18:15;100431.72;;;9.10;70.61
60258;BME280;46115;44.484;11.314;2023-11-19T23:22:19;100419.25;;;8.93;70.78
60258;BME280;46115;44.484;11.314;2023-11-19T23:26:21;100425.19;;;8.98;71.36
60258;BME280;46115;44.484;11.314;2023-11-19T23:30:24;100411.75;;;8.84;72.67
60258;BME280;46115;44.484;11.314;2023-11-19T23:34:26;100415.84;;;8.71;73.26
60258;BME280;46115;44.484;11.314;2023-11-19T23:38:30;100369.56;;;8.64;73.52
60258;BME280;46115;44.484;11.314;2023-11-19T23:42:32;100394.88;;;8.68;74.60
60258;BME280;46115;44.484;11.314;2023-11-19T23:46:34;100390.63;;;8.64;75.35
60258;BME280;46115;44.484;11.314;2023-11-19T23:50:37;100389.84;;;8.62;76.05
60258;BME280;46115;44.484;11.314;2023-11-19T23:54:42;100396.84;;;8.63;76.17
60258;BME280;46115;44.484;11.314;2023-11-19T23:58:44;100387.53;;;8.54;76.26
